sensor_id;sensor_type;location;lat;lon;timestamp;temperature;humidity
27492;DHT22;14927;51.210;6.838;2022-07-23T00:02:28;23.10;61.00
27492;DHT22;14927;51.210;6.838;2022-07-23T00:05:13;23.10;61.10
27492;DHT22;14927;51.210;6.838;2022-07-23T00:07:58;23.00;61.10
27492;DHT22;14927;51.210;6.838;2022-07-23T00:10:43;23.00;61.20
27492;DHT22;14927;51.210;6.838;2022-07-23T00:13:27;23.00;61.30
27492;DHT22;14927;51.210;6.838;2022-07-23T00:16:12;22.90;61.20
27492;DHT22;14927;51.210;6.838;2022-07-23T00:18:56;22.90;61.20
27492;DHT22;14927;51.210;6.838;2022-07-23T00:21:41;22.90;61.20
27492;DHT22;14927;51.210;6.838;2022-07-23T00:24:25;22.90;61.30
27492;DHT22;14927;51.210;6.838;2022-07-23T00:27:10;22.90;61.50
27492;DHT22;14927;51.210;6.838;2022-07-23T00:29:54;22.80;61.60
27492;DHT22;14927;51.210;6.838;2022-07-23T00:32:50;22.80;61.50
27492;DHT22;14927;51.210;6.838;2022-07-23T00:35:38;22.80;62.20
27492;DHT22;14927;51.210;6.838;2022-07-23T00:38:25;22.80;62.10
27492;DHT22;14927;51.210;6.838;2022-07-23T00:41:09;22.80;62.10
27492;DHT22;14927;51.210;6.838;2022-07-23T00:43:54;22.70;62.30
27492;DHT22;14927;51.210;6.838;2022-07-23T00:46:44;22.70;62.50
27492;DHT22;14927;51.210;6.838;2022-07-23T00:49:30;22.70;62.50
27492;DHT22;14927;51.210;6.838;2022-07-23T00:52:14;22.70;62.60
27492;DHT22;14927;51.210;6.838;2022-07-23T00:55:00;22.70;62.60
27492;DHT22;14927;51.210;6.838;2022-07-23T00:57:44;22.70;62.80
27492;DHT22;14927;51.210;6.838;2022-07-23T01:00:29;22.70;62.80
27492;DHT22;14927;51.210;6.838;2022-07-23T01:03:13;22.60;62.50
27492;DHT22;14927;51.210;6.838;2022-07-23T01:05:58;22.60;62.20
27492;DHT22;14927;51.210;6.838;2022-07-23T01:08:43;22.60;62.00
27492;DHT22;14927;51.210;6.838;2022-07-23T01:11:27;22.60;61.90
27492;DHT22;14927;51.210;6.838;2022-07-23T01:14:14;22.60;61.90
27492;DHT22;14927;51.210;6.838;2022-07-23T01:16:59;22.50;61.80
27492;DHT22;14927;51.210;6.838;2022-07-23T01:19:44;22.50;61.60
27492;DHT22;14927;51.210;6.838;2022-07-23T01:22:29;22.50;61.80
27492;DHT22;14927;51.210;6.838;2022-07-23T01:25:14;22.50;62.00
27492;DHT22;14927;51.210;6.838;2022-07-23T01:27:58;22.50;62.00
27492;DHT22;14927;51.210;6.838;2022-07-23T01:30:43;22.50;61.90
27492;DHT22;14927;51.210;6.838;2022-07-23T01:33:29;22.50;62.00
27492;DHT22;14927;51.210;6.838;2022-07-23T01:36:13;22.40;62.00
27492;DHT22;14927;51.210;6.838;2022-07-23T01:39:00;22.40;62.10
27492;DHT22;14927;51.210;6.838;2022-07-23T01:41:45;22.40;62.10
27492;DHT22;14927;51.210;6.838;2022-07-23T01:44:31;22.40;62.10
27492;DHT22;14927;51.210;6.838;2022-07-23T01:47:15;22.30;62.30
27492;DHT22;14927;51.210;6.838;2022-07-23T01:50:00;22.40;62.70
27492;DHT22;14927;51.210;6.838;2022-07-23T01:52:44;22.30;62.80
27492;DHT22;14927;51.210;6.838;2022-07-23T01:55:29;22.30;63.00
27492;DHT22;14927;51.210;6.838;2022-07-23T01:58:13;22.30;63.10
27492;DHT22;14927;51.210;6.838;2022-07-23T02:00:58;22.30;63.30
27492;DHT22;14927;51.210;6.838;2022-07-23T02:03:43;22.30;63.40
27492;DHT22;14927;51.210;6.838;2022-07-23T02:06:27;22.20;63.30
27492;DHT22;14927;51.210;6.838;2022-07-23T02:09:12;22.20;63.50
27492;DHT22;14927;51.210;6.838;2022-07-23T02:11:57;22.20;63.50
27492;DHT22;14927;51.210;6.838;2022-07-23T02:14:42;22.10;63.50
27492;DHT22;14927;51.210;6.838;2022-07-23T02:17:26;22.10;64.20
27492;DHT22;14927;51.210;6.838;2022-07-23T02:20:11;22.10;63.50
27492;DHT22;14927;51.210;6.838;2022-07-23T02:22:56;22.10;63.60
27492;DHT22;14927;51.210;6.838;2022-07-23T02:25:40;22.00;63.70
27492;DHT22;14927;51.210;6.838;2022-07-23T02:28:25;22.00;63.70
27492;DHT22;14927;51.210;6.838;2022-07-23T02:31:09;22.00;63.70
27492;DHT22;14927;51.210;6.838;2022-07-23T02:33:54;21.90;64.00
27492;DHT22;14927;51.210;6.838;2022-07-23T02:36:39;21.90;64.10
27492;DHT22;14927;51.210;6.838;2022-07-23T02:39:24;21.90;64.30
27492;DHT22;14927;51.210;6.838;2022-07-23T02:42:09;21.90;64.40
27492;DHT22;14927;51.210;6.838;2022-07-23T02:44:53;21.80;64.50
27492;DHT22;14927;51.210;6.838;2022-07-23T02:47:38;21.80;64.60
27492;DHT22;14927;51.210;6.838;2022-07-23T02:50:23;21.80;64.80
27492;DHT22;14927;51.210;6.838;2022-07-23T02:53:07;21.70;64.90
27492;DHT22;14927;51.210;6.838;2022-07-23T02:55:52;21.70;65.10
27492;DHT22;14927;51.210;6.838;2022-07-23T02:58:36;21.70;65.20
27492;DHT22;14927;51.210;6.838;2022-07-23T03:01:21;21.70;65.30
27492;DHT22;14927;51.210;6.838;2022-07-23T03:04:05;21.70;65.30
27492;DHT22;14927;51.210;6.838;2022-07-23T03:06:50;21.70;66.20
27492;DHT22;14927;51.210;6.838;2022-07-23T03:09:34;21.60;65.40
27492;DHT22;14927;51.210;6.838;2022-07-23T03:12:19;21.60;65.40
27492;DHT22;14927;51.210;6.838;2022-07-23T03:15:04;21.60;65.50
27492;DHT22;14927;51.210;6.838;2022-07-23T03:17:49;21.60;65.50
27492;DHT22;14927;51.210;6.838;2022-07-23T03:20:34;21.60;65.50
27492;DHT22;14927;51.210;6.838;2022-07-23T03:23:18;21.50;65.50
27492;DHT22;14927;51.210;6.838;2022-07-23T03:26:03;21.50;65.70
27492;DHT22;14927;51.210;6.838;2022-07-23T03:28:48;21.50;65.70
27492;DHT22;14927;51.210;6.838;2022-07-23T03:31:33;21.50;65.60
27492;DHT22;14927;51.210;6.838;2022-07-23T03:34:17;21.40;65.70
27492;DHT22;14927;51.210;6.838;2022-07-23T03:37:03;21.40;65.80
27492;DHT22;14927;51.210;6.838;2022-07-23T03:39:48;21.40;65.90
27492;DHT22;14927;51.210;6.838;2022-07-23T03:42:34;21.40;65.90
27492;DHT22;14927;51.210;6.838;2022-07-23T03:45:18;21.40;66.00
27492;DHT22;14927;51.210;6.838;2022-07-23T03:48:03;21.40;66.00
27492;DHT22;14927;51.210;6.838;2022-07-23T03:50:48;21.40;66.00
27492;DHT22;14927;51.210;6.838;2022-07-23T03:53:32;21.40;66.00
27492;DHT22;14927;51.210;6.838;2022-07-23T03:56:17;21.30;65.90
27492;DHT22;14927;51.210;6.838;2022-07-23T03:59:01;21.30;65.90
27492;DHT22;14927;51.210;6.838;2022-07-23T04:01:46;21.30;65.90
27492;DHT22;14927;51.210;6.838;2022-07-23T04:04:31;21.30;65.90
27492;DHT22;14927;51.210;6.838;2022-07-23T04:07:16;21.30;66.00
27492;DHT22;14927;51.210;6.838;2022-07-23T04:10:02;21.20;66.10
27492;DHT22;14927;51.210;6.838;2022-07-23T04:12:46;21.20;66.10
27492;DHT22;14927;51.210;6.838;2022-07-23T04:15:31;21.20;66.20
27492;DHT22;14927;51.210;6.838;2022-07-23T04:18:16;21.20;66.30
27492;DHT22;14927;51.210;6.838;2022-07-23T04:21:06;21.20;66.40
27492;DHT22;14927;51.210;6.838;2022-07-23T04:23:52;21.20;66.80
27492;DHT22;14927;51.210;6.838;2022-07-23T04:26:36;21.20;66.20
27492;DHT22;14927;51.210;6.838;2022-07-23T04:29:21;21.20;66.60
27492;DHT22;14927;51.210;6.838;2022-07-23T04:32:05;21.20;66.90
27492;DHT22;14927;51.210;6.838;2022-07-23T04:34:50;21.20;67.00
27492;DHT22;14927;51.210;6.838;2022-07-23T04:37:34;21.20;67.10
27492;DHT22;14927;51.210;6.838;2022-07-23T04:40:19;21.20;67.10
27492;DHT22;14927;51.210;6.838;2022-07-23T04:43:04;21.20;67.20
27492;DHT22;14927;51.210;6.838;2022-07-23T04:45:49;21.20;67.30
27492;DHT22;14927;51.210;6.838;2022-07-23T04:48:33;21.20;68.00
27492;DHT22;14927;51.210;6.838;2022-07-23T04:51:18;21.20;67.30
27492;DHT22;14927;51.210;6.838;2022-07-23T04:54:02;21.20;67.30
27492;DHT22;14927;51.210;6.838;2022-07-23T04:56:47;21.20;67.40
27492;DHT22;14927;51.210;6.838;2022-07-23T04:59:32;21.20;67.40
27492;DHT22;14927;51.210;6.838;2022-07-23T05:02:16;21.20;67.50
27492;DHT22;14927;51.210;6.838;2022-07-23T05:05:01;21.20;67.60
27492;DHT22;14927;51.210;6.838;2022-07-23T05:07:45;21.20;67.50
27492;DHT22;14927;51.210;6.838;2022-07-23T05:10:30;21.20;67.60
27492;DHT22;14927;51.210;6.838;2022-07-23T05:13:16;21.30;67.60
27492;DHT22;14927;51.210;6.838;2022-07-23T05:16:01;21.30;68.50
27492;DHT22;14927;51.210;6.838;2022-07-23T05:18:46;21.30;67.60
27492;DHT22;14927;51.210;6.838;2022-07-23T05:21:30;21.30;67.60
27492;DHT22;14927;51.210;6.838;2022-07-23T05:24:15;21.30;67.70
27492;DHT22;14927;51.210;6.838;2022-07-23T05:26:59;21.30;67.60
27492;DHT22;14927;51.210;6.838;2022-07-23T05:29:44;21.30;67.70
27492;DHT22;14927;51.210;6.838;2022-07-23T05:32:28;21.40;67.80
27492;DHT22;14927;51.210;6.838;2022-07-23T05:35:18;21.30;67.70
27492;DHT22;14927;51.210;6.838;2022-07-23T05:38:03;21.40;68.10
27492;DHT22;14927;51.210;6.838;2022-07-23T05:40:48;21.40;68.10
27492;DHT22;14927;51.210;6.838;2022-07-23T05:43:32;21.40;68.20
27492;DHT22;14927;51.210;6.838;2022-07-23T05:46:17;21.40;68.30
27492;DHT22;14927;51.210;6.838;2022-07-23T05:49:02;21.50;68.20
27492;DHT22;14927;51.210;6.838;2022-07-23T05:51:46;21.50;68.10
27492;DHT22;14927;51.210;6.838;2022-07-23T05:54:31;21.50;68.10
27492;DHT22;14927;51.210;6.838;2022-07-23T05:57:18;21.50;68.30
27492;DHT22;14927;51.210;6.838;2022-07-23T06:00:04;21.50;68.30
27492;DHT22;14927;51.210;6.838;2022-07-23T06:02:50;21.60;68.40
27492;DHT22;14927;51.210;6.838;2022-07-23T06:05:35;21.60;68.40
27492;DHT22;14927;51.210;6.838;2022-07-23T06:08:19;21.70;68.50
27492;DHT22;14927;51.210;6.838;2022-07-23T06:11:04;21.70;68.50
27492;DHT22;14927;51.210;6.838;2022-07-23T06:13:48;21.70;68.30
27492;DHT22;14927;51.210;6.838;2022-07-23T06:16:33;21.80;68.20
27492;DHT22;14927;51.210;6.838;2022-07-23T06:19:18;21.80;68.20
27492;DHT22;14927;51.210;6.838;2022-07-23T06:22:02;21.80;68.00
27492;DHT22;14927;51.210;6.838;2022-07-23T06:24:48;21.90;67.80
27492;DHT22;14927;51.210;6.838;2022-07-23T06:27:33;21.90;67.60
27492;DHT22;14927;51.210;6.838;2022-07-23T06:30:17;21.90;67.40
27492;DHT22;14927;51.210;6.838;2022-07-23T06:33:02;22.00;67.40
27492;DHT22;14927;51.210;6.838;2022-07-23T06:35:47;22.00;67.40
27492;DHT22;14927;51.210;6.838;2022-07-23T06:38:32;22.00;67.30
27492;DHT22;14927;51.210;6.838;2022-07-23T06:41:16;22.10;67.20
27492;DHT22;14927;51.210;6.838;2022-07-23T06:44:01;22.10;67.30
27492;DHT22;14927;51.210;6.838;2022-07-23T06:46:46;22.10;66.90
27492;DHT22;14927;51.210;6.838;2022-07-23T06:49:30;22.20;66.80
27492;DHT22;14927;51.210;6.838;2022-07-23T06:52:15;22.20;66.70
27492;DHT22;14927;51.210;6.838;2022-07-23T06:54:59;22.30;66.80
27492;DHT22;14927;51.210;6.838;2022-07-23T06:57:44;22.40;66.40
27492;DHT22;14927;51.210;6.838;2022-07-23T07:00:29;22.40;66.00
27492;DHT22;14927;51.210;6.838;2022-07-23T07:03:17;22.50;65.50
27492;DHT22;14927;51.210;6.838;2022-07-23T07:06:02;22.60;65.00
27492;DHT22;14927;51.210;6.838;2022-07-23T07:08:47;22.60;65.10
27492;DHT22;14927;51.210;6.838;2022-07-23T07:11:31;22.60;65.10
27492;DHT22;14927;51.210;6.838;2022-07-23T07:14:16;22.70;65.10
27492;DHT22;14927;51.210;6.838;2022-07-23T07:17:00;22.70;65.00
27492;DHT22;14927;51.210;6.838;2022-07-23T07:19:45;22.70;64.90
27492;DHT22;14927;51.210;6.838;2022-07-23T07:22:30;22.80;65.00
27492;DHT22;14927;51.210;6.838;2022-07-23T07:25:14;22.90;65.10
27492;DHT22;14927;51.210;6.838;2022-07-23T07:28:00;22.90;65.10
27492;DHT22;14927;51.210;6.838;2022-07-23T07:30:45;23.00;65.40
27492;DHT22;14927;51.210;6.838;2022-07-23T07:33:30;23.00;65.30
27492;DHT22;14927;51.210;6.838;2022-07-23T07:36:14;23.10;65.00
27492;DHT22;14927;51.210;6.838;2022-07-23T07:39:01;23.10;64.20
27492;DHT22;14927;51.210;6.838;2022-07-23T07:41:45;23.20;63.80
27492;DHT22;14927;51.210;6.838;2022-07-23T07:44:35;23.30;63.20
27492;DHT22;14927;51.210;6.838;2022-07-23T07:47:20;23.30;62.20
27492;DHT22;14927;51.210;6.838;2022-07-23T07:50:05;23.40;62.20
27492;DHT22;14927;51.210;6.838;2022-07-23T07:52:49;23.40;61.60
27492;DHT22;14927;51.210;6.838;2022-07-23T07:55:34;23.50;61.30
27492;DHT22;14927;51.210;6.838;2022-07-23T07:58:25;23.50;60.80
27492;DHT22;14927;51.210;6.838;2022-07-23T08:01:10;23.60;60.60
27492;DHT22;14927;51.210;6.838;2022-07-23T08:03:55;23.60;60.70
27492;DHT22;14927;51.210;6.838;2022-07-23T08:06:39;23.70;60.20
27492;DHT22;14927;51.210;6.838;2022-07-23T08:09:24;23.70;59.80
27492;DHT22;14927;51.210;6.838;2022-07-23T08:12:09;23.70;59.80
27492;DHT22;14927;51.210;6.838;2022-07-23T08:14:53;23.70;58.90
27492;DHT22;14927;51.210;6.838;2022-07-23T08:17:38;23.80;58.50
27492;DHT22;14927;51.210;6.838;2022-07-23T08:20:24;23.80;58.00
27492;DHT22;14927;51.210;6.838;2022-07-23T08:23:09;23.90;57.60
27492;DHT22;14927;51.210;6.838;2022-07-23T08:25:54;23.90;57.60
27492;DHT22;14927;51.210;6.838;2022-07-23T08:28:41;24.00;57.40
27492;DHT22;14927;51.210;6.838;2022-07-23T08:31:25;24.00;57.90
27492;DHT22;14927;51.210;6.838;2022-07-23T08:34:10;24.10;57.70
27492;DHT22;14927;51.210;6.838;2022-07-23T08:36:54;24.10;57.20
27492;DHT22;14927;51.210;6.838;2022-07-23T08:39:39;24.20;57.00
27492;DHT22;14927;51.210;6.838;2022-07-23T08:42:24;24.20;56.70
27492;DHT22;14927;51.210;6.838;2022-07-23T08:45:09;24.30;56.30
27492;DHT22;14927;51.210;6.838;2022-07-23T08:47:57;24.30;56.30
27492;DHT22;14927;51.210;6.838;2022-07-23T08:50:47;24.40;56.40
27492;DHT22;14927;51.210;6.838;2022-07-23T08:53:34;24.40;56.10
27492;DHT22;14927;51.210;6.838;2022-07-23T08:56:21;24.40;56.00
27492;DHT22;14927;51.210;6.838;2022-07-23T08:59:06;24.50;55.60
27492;DHT22;14927;51.210;6.838;2022-07-23T09:06:33;24.60;54.80
27492;DHT22;14927;51.210;6.838;2022-07-23T09:09:21;24.70;55.00
27492;DHT22;14927;51.210;6.838;2022-07-23T09:12:08;24.70;54.40
27492;DHT22;14927;51.210;6.838;2022-07-23T09:14:54;24.70;53.90
27492;DHT22;14927;51.210;6.838;2022-07-23T09:17:43;24.80;54.00
27492;DHT22;14927;51.210;6.838;2022-07-23T09:20:28;24.80;54.10
27492;DHT22;14927;51.210;6.838;2022-07-23T09:23:12;24.80;53.80
27492;DHT22;14927;51.210;6.838;2022-07-23T09:26:21;24.90;53.60
27492;DHT22;14927;51.210;6.838;2022-07-23T09:29:25;24.90;52.90
27492;DHT22;14927;51.210;6.838;2022-07-23T09:32:13;25.00;52.10
27492;DHT22;14927;51.210;6.838;2022-07-23T09:34:58;25.10;52.50
27492;DHT22;14927;51.210;6.838;2022-07-23T09:38:01;25.20;52.50
27492;DHT22;14927;51.210;6.838;2022-07-23T09:40:47;25.20;52.10
27492;DHT22;14927;51.210;6.838;2022-07-23T09:43:55;25.20;52.20
27492;DHT22;14927;51.210;6.838;2022-07-23T09:46:40;25.30;51.70
27492;DHT22;14927;51.210;6.838;2022-07-23T09:49:25;25.40;51.60
27492;DHT22;14927;51.210;6.838;2022-07-23T09:52:10;25.40;51.30
27492;DHT22;14927;51.210;6.838;2022-07-23T09:54:59;25.50;51.30
27492;DHT22;14927;51.210;6.838;2022-07-23T09:57:46;25.50;50.30
27492;DHT22;14927;51.210;6.838;2022-07-23T10:00:34;25.50;50.30
27492;DHT22;14927;51.210;6.838;2022-07-23T10:03:20;25.60;50.20
27492;DHT22;14927;51.210;6.838;2022-07-23T10:06:19;25.70;50.20
27492;DHT22;14927;51.210;6.838;2022-07-23T10:09:04;25.70;50.20
27492;DHT22;14927;51.210;6.838;2022-07-23T10:11:49;25.80;50.80
27492;DHT22;14927;51.210;6.838;2022-07-23T10:14:38;25.80;49.80
27492;DHT22;14927;51.210;6.838;2022-07-23T10:17:24;25.90;49.70
27492;DHT22;14927;51.210;6.838;2022-07-23T10:20:09;26.00;49.50
27492;DHT22;14927;51.210;6.838;2022-07-23T10:26:24;26.10;49.00
27492;DHT22;14927;51.210;6.838;2022-07-23T10:29:59;26.10;49.00
27492;DHT22;14927;51.210;6.838;2022-07-23T10:36:22;26.30;48.60
27492;DHT22;14927;51.210;6.838;2022-07-23T10:39:22;26.40;48.00
27492;DHT22;14927;51.210;6.838;2022-07-23T10:42:14;26.40;47.30
27492;DHT22;14927;51.210;6.838;2022-07-23T10:44:59;26.50;47.10
27492;DHT22;14927;51.210;6.838;2022-07-23T10:47:44;26.60;46.80
27492;DHT22;14927;51.210;6.838;2022-07-23T10:50:30;26.60;46.50
27492;DHT22;14927;51.210;6.838;2022-07-23T10:53:17;26.70;46.30
27492;DHT22;14927;51.210;6.838;2022-07-23T10:56:02;26.70;46.80
27492;DHT22;14927;51.210;6.838;2022-07-23T10:58:48;26.80;47.30
27492;DHT22;14927;51.210;6.838;2022-07-23T11:01:34;26.90;46.10
27492;DHT22;14927;51.210;6.838;2022-07-23T11:04:50;26.90;46.20
27492;DHT22;14927;51.210;6.838;2022-07-23T11:07:39;27.00;45.80
27492;DHT22;14927;51.210;6.838;2022-07-23T11:10:55;27.10;45.90
27492;DHT22;14927;51.210;6.838;2022-07-23T11:13:53;27.20;45.30
27492;DHT22;14927;51.210;6.838;2022-07-23T11:16:47;27.30;44.80
27492;DHT22;14927;51.210;6.838;2022-07-23T11:22:58;27.40;43.30
27492;DHT22;14927;51.210;6.838;2022-07-23T11:25:43;27.50;43.50
27492;DHT22;14927;51.210;6.838;2022-07-23T11:28:28;27.50;43.90
27492;DHT22;14927;51.210;6.838;2022-07-23T11:31:19;27.50;44.30
27492;DHT22;14927;51.210;6.838;2022-07-23T11:34:42;27.60;43.40
27492;DHT22;14927;51.210;6.838;2022-07-23T11:37:40;27.60;43.00
27492;DHT22;14927;51.210;6.838;2022-07-23T11:40:25;27.70;42.50
27492;DHT22;14927;51.210;6.838;2022-07-23T11:43:11;27.80;43.10
27492;DHT22;14927;51.210;6.838;2022-07-23T11:45:59;27.90;43.20
27492;DHT22;14927;51.210;6.838;2022-07-23T11:48:44;28.00;42.30
27492;DHT22;14927;51.210;6.838;2022-07-23T11:51:29;28.00;42.40
27492;DHT22;14927;51.210;6.838;2022-07-23T11:54:15;28.10;42.90
27492;DHT22;14927;51.210;6.838;2022-07-23T11:57:02;28.20;42.40
27492;DHT22;14927;51.210;6.838;2022-07-23T11:59:49;28.30;41.80
27492;DHT22;14927;51.210;6.838;2022-07-23T12:02:35;28.40;42.40
27492;DHT22;14927;51.210;6.838;2022-07-23T12:05:22;28.50;42.50
27492;DHT22;14927;51.210;6.838;2022-07-23T12:08:09;28.70;41.20
27492;DHT22;14927;51.210;6.838;2022-07-23T12:10:54;28.80;40.90
27492;DHT22;14927;51.210;6.838;2022-07-23T12:13:38;28.90;41.50
27492;DHT22;14927;51.210;6.838;2022-07-23T12:16:27;29.00;41.20
27492;DHT22;14927;51.210;6.838;2022-07-23T12:19:12;29.20;40.30
27492;DHT22;14927;51.210;6.838;2022-07-23T12:21:58;29.30;40.20
27492;DHT22;14927;51.210;6.838;2022-07-23T12:28:06;29.70;39.10
27492;DHT22;14927;51.210;6.838;2022-07-23T12:30:59;29.80;38.70
27492;DHT22;14927;51.210;6.838;2022-07-23T12:33:44;30.00;38.90
27492;DHT22;14927;51.210;6.838;2022-07-23T12:36:37;30.20;37.90
27492;DHT22;14927;51.210;6.838;2022-07-23T12:39:30;30.30;37.30
27492;DHT22;14927;51.210;6.838;2022-07-23T12:42:20;30.50;36.20
27492;DHT22;14927;51.210;6.838;2022-07-23T12:45:06;30.60;36.10
27492;DHT22;14927;51.210;6.838;2022-07-23T12:48:01;30.80;37.20
27492;DHT22;14927;51.210;6.838;2022-07-23T12:51:02;31.00;35.60
27492;DHT22;14927;51.210;6.838;2022-07-23T12:53:48;31.20;36.30
27492;DHT22;14927;51.210;6.838;2022-07-23T12:56:38;31.40;35.80
27492;DHT22;14927;51.210;6.838;2022-07-23T12:59:31;31.50;37.90
27492;DHT22;14927;51.210;6.838;2022-07-23T13:02:15;31.70;34.90
27492;DHT22;14927;51.210;6.838;2022-07-23T13:05:01;31.90;34.30
27492;DHT22;14927;51.210;6.838;2022-07-23T13:07:45;32.10;34.10
27492;DHT22;14927;51.210;6.838;2022-07-23T13:10:30;32.20;33.70
27492;DHT22;14927;51.210;6.838;2022-07-23T13:13:15;32.40;33.20
27492;DHT22;14927;51.210;6.838;2022-07-23T13:16:00;32.50;32.80
27492;DHT22;14927;51.210;6.838;2022-07-23T13:18:45;32.60;32.10
27492;DHT22;14927;51.210;6.838;2022-07-23T13:21:30;32.70;31.80
27492;DHT22;14927;51.210;6.838;2022-07-23T13:24:15;32.80;31.80
27492;DHT22;14927;51.210;6.838;2022-07-23T13:27:04;32.80;31.60
27492;DHT22;14927;51.210;6.838;2022-07-23T13:29:50;32.80;31.50
27492;DHT22;14927;51.210;6.838;2022-07-23T13:32:35;32.90;31.70
27492;DHT22;14927;51.210;6.838;2022-07-23T13:35:20;32.90;31.80
27492;DHT22;14927;51.210;6.838;2022-07-23T13:38:05;33.00;31.40
27492;DHT22;14927;51.210;6.838;2022-07-23T13:40:52;33.20;30.90
27492;DHT22;14927;51.210;6.838;2022-07-23T13:43:48;33.40;31.40
27492;DHT22;14927;51.210;6.838;2022-07-23T13:46:34;33.50;30.30
27492;DHT22;14927;51.210;6.838;2022-07-23T13:49:19;33.80;30.00
27492;DHT22;14927;51.210;6.838;2022-07-23T13:52:04;34.00;29.80
27492;DHT22;14927;51.210;6.838;2022-07-23T13:54:49;34.20;29.80
27492;DHT22;14927;51.210;6.838;2022-07-23T13:57:34;34.40;29.40
27492;DHT22;14927;51.210;6.838;2022-07-23T14:00:19;34.60;29.10
27492;DHT22;14927;51.210;6.838;2022-07-23T14:03:04;34.80;29.00
27492;DHT22;14927;51.210;6.838;2022-07-23T14:05:54;35.00;28.90
27492;DHT22;14927;51.210;6.838;2022-07-23T14:08:38;35.10;27.80
27492;DHT22;14927;51.210;6.838;2022-07-23T14:11:23;35.20;30.20
27492;DHT22;14927;51.210;6.838;2022-07-23T14:14:07;35.30;28.00
27492;DHT22;14927;51.210;6.838;2022-07-23T14:16:52;35.30;27.60
27492;DHT22;14927;51.210;6.838;2022-07-23T14:19:37;35.20;27.60
27492;DHT22;14927;51.210;6.838;2022-07-23T14:22:21;35.10;27.70
27492;DHT22;14927;51.210;6.838;2022-07-23T14:25:08;35.10;27.90
27492;DHT22;14927;51.210;6.838;2022-07-23T14:27:53;35.00;28.10
27492;DHT22;14927;51.210;6.838;2022-07-23T14:30:37;34.90;28.10
27492;DHT22;14927;51.210;6.838;2022-07-23T14:33:26;34.70;28.00
27492;DHT22;14927;51.210;6.838;2022-07-23T14:36:17;34.60;28.00
27492;DHT22;14927;51.210;6.838;2022-07-23T14:39:02;34.50;27.80
27492;DHT22;14927;51.210;6.838;2022-07-23T14:41:57;34.40;28.20
27492;DHT22;14927;51.210;6.838;2022-07-23T14:44:42;34.20;28.10
27492;DHT22;14927;51.210;6.838;2022-07-23T14:47:26;34.10;28.30
27492;DHT22;14927;51.210;6.838;2022-07-23T14:50:11;34.00;28.60
27492;DHT22;14927;51.210;6.838;2022-07-23T14:52:56;33.90;28.80
27492;DHT22;14927;51.210;6.838;2022-07-23T14:55:40;33.80;28.60
27492;DHT22;14927;51.210;6.838;2022-07-23T14:58:25;33.70;29.00
27492;DHT22;14927;51.210;6.838;2022-07-23T15:01:10;33.60;29.60
27492;DHT22;14927;51.210;6.838;2022-07-23T15:03:54;33.50;29.20
27492;DHT22;14927;51.210;6.838;2022-07-23T15:06:39;33.40;29.70
27492;DHT22;14927;51.210;6.838;2022-07-23T15:09:24;33.30;29.30
27492;DHT22;14927;51.210;6.838;2022-07-23T15:12:09;33.30;28.90
27492;DHT22;14927;51.210;6.838;2022-07-23T15:14:59;33.20;29.00
27492;DHT22;14927;51.210;6.838;2022-07-23T15:17:43;33.10;28.40
27492;DHT22;14927;51.210;6.838;2022-07-23T15:20:28;33.10;28.70
27492;DHT22;14927;51.210;6.838;2022-07-23T15:23:13;33.00;28.80
27492;DHT22;14927;51.210;6.838;2022-07-23T15:25:59;32.90;28.90
27492;DHT22;14927;51.210;6.838;2022-07-23T15:28:45;32.90;28.90
27492;DHT22;14927;51.210;6.838;2022-07-23T15:31:31;32.80;28.90
27492;DHT22;14927;51.210;6.838;2022-07-23T15:34:16;32.80;29.00
27492;DHT22;14927;51.210;6.838;2022-07-23T15:37:01;32.60;29.10
27492;DHT22;14927;51.210;6.838;2022-07-23T15:39:45;32.60;29.30
27492;DHT22;14927;51.210;6.838;2022-07-23T15:42:30;32.60;29.40
27492;DHT22;14927;51.210;6.838;2022-07-23T15:45:15;32.50;29.80
27492;DHT22;14927;51.210;6.838;2022-07-23T15:47:59;32.40;29.50
27492;DHT22;14927;51.210;6.838;2022-07-23T15:50:44;32.40;29.80
27492;DHT22;14927;51.210;6.838;2022-07-23T15:53:28;32.40;29.70
27492;DHT22;14927;51.210;6.838;2022-07-23T15:56:13;32.30;29.70
27492;DHT22;14927;51.210;6.838;2022-07-23T15:58:58;32.30;29.40
27492;DHT22;14927;51.210;6.838;2022-07-23T16:01:43;32.20;29.30
27492;DHT22;14927;51.210;6.838;2022-07-23T16:04:28;32.20;29.60
27492;DHT22;14927;51.210;6.838;2022-07-23T16:07:14;32.10;29.70
27492;DHT22;14927;51.210;6.838;2022-07-23T16:10:00;32.10;29.80
27492;DHT22;14927;51.210;6.838;2022-07-23T16:12:45;32.00;29.80
27492;DHT22;14927;51.210;6.838;2022-07-23T16:15:31;32.00;30.00
27492;DHT22;14927;51.210;6.838;2022-07-23T16:18:17;31.90;30.00
27492;DHT22;14927;51.210;6.838;2022-07-23T16:21:02;31.90;30.10
27492;DHT22;14927;51.210;6.838;2022-07-23T16:23:47;31.80;30.10
27492;DHT22;14927;51.210;6.838;2022-07-23T16:26:31;31.80;30.10
27492;DHT22;14927;51.210;6.838;2022-07-23T16:29:16;31.70;30.00
27492;DHT22;14927;51.210;6.838;2022-07-23T16:32:01;31.70;30.00
27492;DHT22;14927;51.210;6.838;2022-07-23T16:34:45;31.60;30.20
27492;DHT22;14927;51.210;6.838;2022-07-23T16:37:30;31.50;30.50
27492;DHT22;14927;51.210;6.838;2022-07-23T16:40:14;31.50;30.70
27492;DHT22;14927;51.210;6.838;2022-07-23T16:42:59;31.50;30.90
27492;DHT22;14927;51.210;6.838;2022-07-23T16:45:51;31.40;31.00
27492;DHT22;14927;51.210;6.838;2022-07-23T16:48:36;31.30;31.20
27492;DHT22;14927;51.210;6.838;2022-07-23T16:51:21;31.30;31.30
27492;DHT22;14927;51.210;6.838;2022-07-23T16:54:08;31.40;30.90
27492;DHT22;14927;51.210;6.838;2022-07-23T16:56:53;31.30;30.40
27492;DHT22;14927;51.210;6.838;2022-07-23T16:59:38;31.30;30.30
27492;DHT22;14927;51.210;6.838;2022-07-23T17:02:22;31.30;30.60
27492;DHT22;14927;51.210;6.838;2022-07-23T17:05:08;31.40;31.30
27492;DHT22;14927;51.210;6.838;2022-07-23T17:07:53;31.30;31.20
27492;DHT22;14927;51.210;6.838;2022-07-23T17:10:38;31.30;30.90
27492;DHT22;14927;51.210;6.838;2022-07-23T17:13:23;31.40;31.50
27492;DHT22;14927;51.210;6.838;2022-07-23T17:16:08;31.40;30.80
27492;DHT22;14927;51.210;6.838;2022-07-23T17:18:52;31.40;30.80
27492;DHT22;14927;51.210;6.838;2022-07-23T17:21:38;31.40;30.80
27492;DHT22;14927;51.210;6.838;2022-07-23T17:24:23;31.50;31.00
27492;DHT22;14927;51.210;6.838;2022-07-23T17:27:22;31.50;30.80
27492;DHT22;14927;51.210;6.838;2022-07-23T17:30:07;31.50;31.40
27492;DHT22;14927;51.210;6.838;2022-07-23T17:32:52;31.60;31.90
27492;DHT22;14927;51.210;6.838;2022-07-23T17:35:37;31.70;31.50
27492;DHT22;14927;51.210;6.838;2022-07-23T17:38:21;31.90;31.50
27492;DHT22;14927;51.210;6.838;2022-07-23T17:41:07;32.00;31.50
27492;DHT22;14927;51.210;6.838;2022-07-23T17:43:59;32.20;30.80
27492;DHT22;14927;51.210;6.838;2022-07-23T17:46:45;32.30;30.00
27492;DHT22;14927;51.210;6.838;2022-07-23T17:49:30;32.50;31.10